<?xml version="1.0" encoding="UTF-8" standalone="no" ?>
<gpx xmlns="http://www.topografix.com/GPX/1/1" xmlns:xsi="http://www.w3.org/2001/XMLSchema-instance" xsi:schemaLocation="http://www.topografix.com/GPX/1/1 http://www.topografix.com/GPX/1/1/gpx.xsd" version="1.1" creator="VisuGPX - https://www.visugpx.com">
  <metadata>
    <name>10745357-Le village aux trois ruisseaux GR3</name>
  </metadata>
  <trk>
    <name><![CDATA[10745357-Le village aux trois ruisseaux GR3]]></name>
    <trkseg>
      <trkpt lat="45.94574" lon="4.52703">
        <ele>352</ele>
        <time>2022-03-07T20:16:59Z</time>
      </trkpt>
      <trkpt lat="45.94592" lon="4.52626">
        <ele>353</ele>
        <time>2022-03-07T20:18:14Z</time>
      </trkpt>
      <trkpt lat="45.94614" lon="4.52581">
        <ele>350</ele>
        <time>2022-03-07T20:19:05Z</time>
      </trkpt>
      <trkpt lat="45.9467" lon="4.52538">
        <ele>347</ele>
        <time>2022-03-07T20:20:30Z</time>
      </trkpt>
      <trkpt lat="45.94776" lon="4.52435">
        <ele>348</ele>
        <time>2022-03-07T20:23:21Z</time>
      </trkpt>
      <trkpt lat="45.94807" lon="4.52344">
        <ele>356</ele>
        <time>2022-03-07T20:24:55Z</time>
      </trkpt>
      <trkpt lat="45.94823" lon="4.52325">
        <ele>360</ele>
        <time>2022-03-07T20:25:23Z</time>
      </trkpt>
      <trkpt lat="45.94846" lon="4.52283">
        <ele>360</ele>
        <time>2022-03-07T20:26:12Z</time>
      </trkpt>
      <trkpt lat="45.94871" lon="4.52241">
        <ele>359</ele>
        <time>2022-03-07T20:27:03Z</time>
      </trkpt>
      <trkpt lat="45.94943" lon="4.52152">
        <ele>360</ele>
        <time>2022-03-07T20:29:10Z</time>
      </trkpt>
      <trkpt lat="45.95038" lon="4.51981">
        <ele>362</ele>
        <time>2022-03-07T20:32:33Z</time>
      </trkpt>
      <trkpt lat="45.95051" lon="4.51961">
        <ele>363</ele>
        <time>2022-03-07T20:32:59Z</time>
      </trkpt>
      <trkpt lat="45.95098" lon="4.51909">
        <ele>366</ele>
        <time>2022-03-07T20:34:18Z</time>
      </trkpt>
      <trkpt lat="45.95143" lon="4.51853">
        <ele>368</ele>
        <time>2022-03-07T20:35:37Z</time>
      </trkpt>
      <trkpt lat="45.95257" lon="4.51602">
        <ele>394</ele>
        <time>2022-03-07T20:40:15Z</time>
      </trkpt>
      <trkpt lat="45.95312" lon="4.51489">
        <ele>398</ele>
        <time>2022-03-07T20:42:23Z</time>
      </trkpt>
      <trkpt lat="45.95357" lon="4.51396">
        <ele>399</ele>
        <time>2022-03-07T20:44:08Z</time>
      </trkpt>
      <trkpt lat="45.95366" lon="4.51315">
        <ele>403</ele>
        <time>2022-03-07T20:45:25Z</time>
      </trkpt>
      <trkpt lat="45.95374" lon="4.5129">
        <ele>404</ele>
        <time>2022-03-07T20:45:50Z</time>
      </trkpt>
      <trkpt lat="45.95413" lon="4.51225">
        <ele>410</ele>
        <time>2022-03-07T20:47:10Z</time>
      </trkpt>
      <trkpt lat="45.95497" lon="4.51091">
        <ele>432</ele>
        <time>2022-03-07T20:49:57Z</time>
      </trkpt>
      <trkpt lat="45.95534" lon="4.50993">
        <ele>440</ele>
        <time>2022-03-07T20:51:41Z</time>
      </trkpt>
      <trkpt lat="45.95547" lon="4.50941">
        <ele>445</ele>
        <time>2022-03-07T20:52:32Z</time>
      </trkpt>
      <trkpt lat="45.95576" lon="4.50896">
        <ele>454</ele>
        <time>2022-03-07T20:53:29Z</time>
      </trkpt>
      <trkpt lat="45.95625" lon="4.50799">
        <ele>473</ele>
        <time>2022-03-07T20:55:20Z</time>
      </trkpt>
      <trkpt lat="45.95614" lon="4.50818">
        <ele>469</ele>
        <time>2022-03-07T20:55:43Z</time>
      </trkpt>
      <trkpt lat="45.95631" lon="4.50824">
        <ele>469</ele>
        <time>2022-03-07T20:56:06Z</time>
      </trkpt>
      <trkpt lat="45.95699" lon="4.50805">
        <ele>467</ele>
        <time>2022-03-07T20:57:39Z</time>
      </trkpt>
      <trkpt lat="45.95737" lon="4.50789">
        <ele>461</ele>
        <time>2022-03-07T20:58:32Z</time>
      </trkpt>
      <trkpt lat="45.95764" lon="4.50772">
        <ele>458</ele>
        <time>2022-03-07T20:59:11Z</time>
      </trkpt>
      <trkpt lat="45.95807" lon="4.50755">
        <ele>449</ele>
        <time>2022-03-07T21:00:10Z</time>
      </trkpt>
      <trkpt lat="45.95855" lon="4.50801">
        <ele>435</ele>
        <time>2022-03-07T21:01:27Z</time>
      </trkpt>
      <trkpt lat="45.95932" lon="4.50802">
        <ele>427</ele>
        <time>2022-03-07T21:03:10Z</time>
      </trkpt>
      <trkpt lat="45.96028" lon="4.50884">
        <ele>417</ele>
        <time>2022-03-07T21:05:39Z</time>
      </trkpt>
      <trkpt lat="45.96034" lon="4.50855">
        <ele>417</ele>
        <time>2022-03-07T21:06:07Z</time>
      </trkpt>
      <trkpt lat="45.95948" lon="4.50788">
        <ele>425</ele>
        <time>2022-03-07T21:08:18Z</time>
      </trkpt>
      <trkpt lat="45.95876" lon="4.50801">
        <ele>433</ele>
        <time>2022-03-07T21:09:55Z</time>
      </trkpt>
      <trkpt lat="45.95828" lon="4.50776">
        <ele>441</ele>
        <time>2022-03-07T21:11:03Z</time>
      </trkpt>
      <trkpt lat="45.95775" lon="4.50766">
        <ele>456</ele>
        <time>2022-03-07T21:12:14Z</time>
      </trkpt>
      <trkpt lat="45.95747" lon="4.50782">
        <ele>460</ele>
        <time>2022-03-07T21:12:54Z</time>
      </trkpt>
      <trkpt lat="45.95729" lon="4.5079">
        <ele>463</ele>
        <time>2022-03-07T21:13:19Z</time>
      </trkpt>
      <trkpt lat="45.95719" lon="4.50791">
        <ele>465</ele>
        <time>2022-03-07T21:13:33Z</time>
      </trkpt>
      <trkpt lat="45.9571" lon="4.50795">
        <ele>466</ele>
        <time>2022-03-07T21:13:45Z</time>
      </trkpt>
      <trkpt lat="45.95694" lon="4.50804">
        <ele>468</ele>
        <time>2022-03-07T21:14:08Z</time>
      </trkpt>
      <trkpt lat="45.95675" lon="4.50809">
        <ele>471</ele>
        <time>2022-03-07T21:14:34Z</time>
      </trkpt>
      <trkpt lat="45.95655" lon="4.5081">
        <ele>472</ele>
        <time>2022-03-07T21:15:01Z</time>
      </trkpt>
      <trkpt lat="45.95637" lon="4.50814">
        <ele>471</ele>
        <time>2022-03-07T21:15:25Z</time>
      </trkpt>
      <trkpt lat="45.9562" lon="4.50794">
        <ele>473</ele>
        <time>2022-03-07T21:15:54Z</time>
      </trkpt>
      <trkpt lat="45.95626" lon="4.50778">
        <ele>476</ele>
        <time>2022-03-07T21:16:11Z</time>
      </trkpt>
      <trkpt lat="45.95618" lon="4.50735">
        <ele>480</ele>
        <time>2022-03-07T21:16:53Z</time>
      </trkpt>
      <trkpt lat="45.95617" lon="4.50711">
        <ele>482</ele>
        <time>2022-03-07T21:17:15Z</time>
      </trkpt>
      <trkpt lat="45.9562" lon="4.50679">
        <ele>486</ele>
        <time>2022-03-07T21:17:45Z</time>
      </trkpt>
      <trkpt lat="45.95614" lon="4.50574">
        <ele>502</ele>
        <time>2022-03-07T21:19:23Z</time>
      </trkpt>
      <trkpt lat="45.95606" lon="4.50516">
        <ele>508</ele>
        <time>2022-03-07T21:20:17Z</time>
      </trkpt>
      <trkpt lat="45.95611" lon="4.50498">
        <ele>510</ele>
        <time>2022-03-07T21:20:35Z</time>
      </trkpt>
      <trkpt lat="45.95616" lon="4.50444">
        <ele>514</ele>
        <time>2022-03-07T21:21:26Z</time>
      </trkpt>
      <trkpt lat="45.95617" lon="4.50433">
        <ele>514</ele>
        <time>2022-03-07T21:21:36Z</time>
      </trkpt>
      <trkpt lat="45.95617" lon="4.50411">
        <ele>516</ele>
        <time>2022-03-07T21:21:57Z</time>
      </trkpt>
      <trkpt lat="45.95616" lon="4.50393">
        <ele>515</ele>
        <time>2022-03-07T21:22:13Z</time>
      </trkpt>
      <trkpt lat="45.95607" lon="4.50368">
        <ele>516</ele>
        <time>2022-03-07T21:22:39Z</time>
      </trkpt>
      <trkpt lat="45.956" lon="4.5035">
        <ele>518</ele>
        <time>2022-03-07T21:22:59Z</time>
      </trkpt>
      <trkpt lat="45.9556" lon="4.50277">
        <ele>523</ele>
        <time>2022-03-07T21:24:25Z</time>
      </trkpt>
      <trkpt lat="45.95555" lon="4.50266">
        <ele>523</ele>
        <time>2022-03-07T21:24:37Z</time>
      </trkpt>
      <trkpt lat="45.95493" lon="4.5019">
        <ele>540</ele>
        <time>2022-03-07T21:26:26Z</time>
      </trkpt>
      <trkpt lat="45.95447" lon="4.5016">
        <ele>541</ele>
        <time>2022-03-07T21:27:33Z</time>
      </trkpt>
      <trkpt lat="45.95407" lon="4.50121">
        <ele>545</ele>
        <time>2022-03-07T21:28:38Z</time>
      </trkpt>
      <trkpt lat="45.9534" lon="4.49968">
        <ele>558</ele>
        <time>2022-03-07T21:31:25Z</time>
      </trkpt>
      <trkpt lat="45.95316" lon="4.49863">
        <ele>566</ele>
        <time>2022-03-07T21:33:08Z</time>
      </trkpt>
      <trkpt lat="45.953" lon="4.49779">
        <ele>570</ele>
        <time>2022-03-07T21:34:29Z</time>
      </trkpt>
      <trkpt lat="45.9527" lon="4.49699">
        <ele>581</ele>
        <time>2022-03-07T21:35:53Z</time>
      </trkpt>
      <trkpt lat="45.95261" lon="4.49614">
        <ele>599</ele>
        <time>2022-03-07T21:37:13Z</time>
      </trkpt>
      <trkpt lat="45.95279" lon="4.49511">
        <ele>608</ele>
        <time>2022-03-07T21:38:51Z</time>
      </trkpt>
      <trkpt lat="45.95301" lon="4.49392">
        <ele>615</ele>
        <time>2022-03-07T21:40:46Z</time>
      </trkpt>
      <trkpt lat="45.95426" lon="4.49221">
        <ele>633</ele>
        <time>2022-03-07T21:44:36Z</time>
      </trkpt>
      <trkpt lat="45.95501" lon="4.4914">
        <ele>645</ele>
        <time>2022-03-07T21:46:41Z</time>
      </trkpt>
      <trkpt lat="45.9548" lon="4.4908">
        <ele>649</ele>
        <time>2022-03-07T21:47:43Z</time>
      </trkpt>
      <trkpt lat="45.95588" lon="4.48942">
        <ele>650</ele>
        <time>2022-03-07T21:50:56Z</time>
      </trkpt>
      <trkpt lat="45.95728" lon="4.48875">
        <ele>661</ele>
        <time>2022-03-07T21:54:13Z</time>
      </trkpt>
      <trkpt lat="45.95845" lon="4.48834">
        <ele>659</ele>
        <time>2022-03-07T21:56:54Z</time>
      </trkpt>
      <trkpt lat="45.95893" lon="4.48733">
        <ele>662</ele>
        <time>2022-03-07T21:58:47Z</time>
      </trkpt>
      <trkpt lat="45.95874" lon="4.48605">
        <ele>652</ele>
        <time>2022-03-07T22:00:49Z</time>
      </trkpt>
      <trkpt lat="45.95862" lon="4.48497">
        <ele>650</ele>
        <time>2022-03-07T22:02:30Z</time>
      </trkpt>
      <trkpt lat="45.9588" lon="4.48355">
        <ele>666</ele>
        <time>2022-03-07T22:04:44Z</time>
      </trkpt>
      <trkpt lat="45.9578" lon="4.48281">
        <ele>651</ele>
        <time>2022-03-07T22:07:14Z</time>
      </trkpt>
      <trkpt lat="45.95748" lon="4.48222">
        <ele>646</ele>
        <time>2022-03-07T22:08:23Z</time>
      </trkpt>
      <trkpt lat="45.95647" lon="4.4814">
        <ele>641</ele>
        <time>2022-03-07T22:10:58Z</time>
      </trkpt>
      <trkpt lat="45.95707" lon="4.48206">
        <ele>637</ele>
        <time>2022-03-07T22:12:39Z</time>
      </trkpt>
      <trkpt lat="45.95703" lon="4.48307">
        <ele>628</ele>
        <time>2022-03-07T22:14:13Z</time>
      </trkpt>
      <trkpt lat="45.95728" lon="4.48407">
        <ele>623</ele>
        <time>2022-03-07T22:15:51Z</time>
      </trkpt>
      <trkpt lat="45.95773" lon="4.4845">
        <ele>628</ele>
        <time>2022-03-07T22:17:04Z</time>
      </trkpt>
      <trkpt lat="45.9576" lon="4.48529">
        <ele>613</ele>
        <time>2022-03-07T22:18:19Z</time>
      </trkpt>
      <trkpt lat="45.95778" lon="4.48633">
        <ele>613</ele>
        <time>2022-03-07T22:19:58Z</time>
      </trkpt>
      <trkpt lat="45.95672" lon="4.48685">
        <ele>594</ele>
        <time>2022-03-07T22:22:28Z</time>
      </trkpt>
      <trkpt lat="45.95542" lon="4.48739">
        <ele>588</ele>
        <time>2022-03-07T22:25:28Z</time>
      </trkpt>
      <trkpt lat="45.95501" lon="4.48789">
        <ele>593</ele>
        <time>2022-03-07T22:26:40Z</time>
      </trkpt>
      <trkpt lat="45.95448" lon="4.48825">
        <ele>598</ele>
        <time>2022-03-07T22:27:58Z</time>
      </trkpt>
      <trkpt lat="45.95383" lon="4.48807">
        <ele>590</ele>
        <time>2022-03-07T22:29:27Z</time>
      </trkpt>
      <trkpt lat="45.95283" lon="4.48804">
        <ele>588</ele>
        <time>2022-03-07T22:31:40Z</time>
      </trkpt>
      <trkpt lat="45.95253" lon="4.48806">
        <ele>587</ele>
        <time>2022-03-07T22:32:20Z</time>
      </trkpt>
      <trkpt lat="45.95212" lon="4.48852">
        <ele>584</ele>
        <time>2022-03-07T22:33:30Z</time>
      </trkpt>
      <trkpt lat="45.95199" lon="4.48947">
        <ele>588</ele>
        <time>2022-03-07T22:34:59Z</time>
      </trkpt>
      <trkpt lat="45.95162" lon="4.49032">
        <ele>581</ele>
        <time>2022-03-07T22:36:32Z</time>
      </trkpt>
      <trkpt lat="45.95112" lon="4.49056">
        <ele>571</ele>
        <time>2022-03-07T22:37:43Z</time>
      </trkpt>
      <trkpt lat="45.95052" lon="4.49116">
        <ele>576</ele>
        <time>2022-03-07T22:39:20Z</time>
      </trkpt>
      <trkpt lat="45.95033" lon="4.49164">
        <ele>582</ele>
        <time>2022-03-07T22:40:12Z</time>
      </trkpt>
      <trkpt lat="45.94988" lon="4.49188">
        <ele>588</ele>
        <time>2022-03-07T22:41:16Z</time>
      </trkpt>
      <trkpt lat="45.94936" lon="4.49243">
        <ele>600</ele>
        <time>2022-03-07T22:42:42Z</time>
      </trkpt>
      <trkpt lat="45.94905" lon="4.49273">
        <ele>607</ele>
        <time>2022-03-07T22:43:32Z</time>
      </trkpt>
      <trkpt lat="45.9493" lon="4.49298">
        <ele>604</ele>
        <time>2022-03-07T22:44:12Z</time>
      </trkpt>
      <trkpt lat="45.94929" lon="4.49523">
        <ele>606</ele>
        <time>2022-03-07T22:47:41Z</time>
      </trkpt>
      <trkpt lat="45.94862" lon="4.49667">
        <ele>589</ele>
        <time>2022-03-07T22:50:22Z</time>
      </trkpt>
      <trkpt lat="45.94911" lon="4.49761">
        <ele>565</ele>
        <time>2022-03-07T22:52:11Z</time>
      </trkpt>
      <trkpt lat="45.94872" lon="4.50139">
        <ele>516</ele>
        <time>2022-03-07T22:58:05Z</time>
      </trkpt>
      <trkpt lat="45.94869" lon="4.5026">
        <ele>506</ele>
        <time>2022-03-07T22:59:58Z</time>
      </trkpt>
      <trkpt lat="45.94858" lon="4.50453">
        <ele>480</ele>
        <time>2022-03-07T23:02:57Z</time>
      </trkpt>
      <trkpt lat="45.94872" lon="4.50486">
        <ele>475</ele>
        <time>2022-03-07T23:03:33Z</time>
      </trkpt>
      <trkpt lat="45.94852" lon="4.50587">
        <ele>461</ele>
        <time>2022-03-07T23:05:11Z</time>
      </trkpt>
      <trkpt lat="45.94881" lon="4.50672">
        <ele>450</ele>
        <time>2022-03-07T23:06:38Z</time>
      </trkpt>
      <trkpt lat="45.94861" lon="4.50752">
        <ele>442</ele>
        <time>2022-03-07T23:07:57Z</time>
      </trkpt>
      <trkpt lat="45.94827" lon="4.50791">
        <ele>437</ele>
        <time>2022-03-07T23:08:55Z</time>
      </trkpt>
      <trkpt lat="45.94829" lon="4.50853">
        <ele>432</ele>
        <time>2022-03-07T23:09:53Z</time>
      </trkpt>
      <trkpt lat="45.9485" lon="4.51061">
        <ele>421</ele>
        <time>2022-03-07T23:13:08Z</time>
      </trkpt>
      <trkpt lat="45.94886" lon="4.51126">
        <ele>417</ele>
        <time>2022-03-07T23:14:25Z</time>
      </trkpt>
      <trkpt lat="45.94868" lon="4.51233">
        <ele>410</ele>
        <time>2022-03-07T23:16:07Z</time>
      </trkpt>
      <trkpt lat="45.94847" lon="4.51313">
        <ele>406</ele>
        <time>2022-03-07T23:17:27Z</time>
      </trkpt>
      <trkpt lat="45.94845" lon="4.51387">
        <ele>400</ele>
        <time>2022-03-07T23:18:35Z</time>
      </trkpt>
      <trkpt lat="45.94849" lon="4.5148">
        <ele>395</ele>
        <time>2022-03-07T23:20:02Z</time>
      </trkpt>
      <trkpt lat="45.94843" lon="4.51543">
        <ele>390</ele>
        <time>2022-03-07T23:21:01Z</time>
      </trkpt>
      <trkpt lat="45.94841" lon="4.51633">
        <ele>384</ele>
        <time>2022-03-07T23:22:24Z</time>
      </trkpt>
      <trkpt lat="45.94831" lon="4.51712">
        <ele>378</ele>
        <time>2022-03-07T23:23:39Z</time>
      </trkpt>
      <trkpt lat="45.94815" lon="4.51784">
        <ele>370</ele>
        <time>2022-03-07T23:24:49Z</time>
      </trkpt>
      <trkpt lat="45.94818" lon="4.5185">
        <ele>364</ele>
        <time>2022-03-07T23:25:50Z</time>
      </trkpt>
      <trkpt lat="45.94804" lon="4.51902">
        <ele>357</ele>
        <time>2022-03-07T23:26:42Z</time>
      </trkpt>
      <trkpt lat="45.94801" lon="4.51969">
        <ele>350</ele>
        <time>2022-03-07T23:27:44Z</time>
      </trkpt>
      <trkpt lat="45.9479" lon="4.52032">
        <ele>343</ele>
        <time>2022-03-07T23:28:45Z</time>
      </trkpt>
      <trkpt lat="45.94772" lon="4.52065">
        <ele>338</ele>
        <time>2022-03-07T23:29:24Z</time>
      </trkpt>
      <trkpt lat="45.94757" lon="4.52097">
        <ele>334</ele>
        <time>2022-03-07T23:29:59Z</time>
      </trkpt>
      <trkpt lat="45.94746" lon="4.52137">
        <ele>331</ele>
        <time>2022-03-07T23:30:39Z</time>
      </trkpt>
      <trkpt lat="45.94734" lon="4.52181">
        <ele>330</ele>
        <time>2022-03-07T23:31:23Z</time>
      </trkpt>
      <trkpt lat="45.94719" lon="4.52218">
        <ele>331</ele>
        <time>2022-03-07T23:32:03Z</time>
      </trkpt>
      <trkpt lat="45.94693" lon="4.52228">
        <ele>330</ele>
        <time>2022-03-07T23:32:39Z</time>
      </trkpt>
      <trkpt lat="45.94712" lon="4.52263">
        <ele>332</ele>
        <time>2022-03-07T23:33:20Z</time>
      </trkpt>
      <trkpt lat="45.94716" lon="4.52309">
        <ele>333</ele>
        <time>2022-03-07T23:34:03Z</time>
      </trkpt>
      <trkpt lat="45.94711" lon="4.52343">
        <ele>334</ele>
        <time>2022-03-07T23:34:35Z</time>
      </trkpt>
      <trkpt lat="45.94702" lon="4.52377">
        <ele>335</ele>
        <time>2022-03-07T23:35:09Z</time>
      </trkpt>
      <trkpt lat="45.94697" lon="4.52395">
        <ele>336</ele>
        <time>2022-03-07T23:35:27Z</time>
      </trkpt>
      <trkpt lat="45.94693" lon="4.5242">
        <ele>337</ele>
        <time>2022-03-07T23:35:51Z</time>
      </trkpt>
      <trkpt lat="45.94686" lon="4.52448">
        <ele>340</ele>
        <time>2022-03-07T23:36:18Z</time>
      </trkpt>
      <trkpt lat="45.94676" lon="4.52465">
        <ele>341</ele>
        <time>2022-03-07T23:36:39Z</time>
      </trkpt>
      <trkpt lat="45.94651" lon="4.52492">
        <ele>343</ele>
        <time>2022-03-07T23:37:21Z</time>
      </trkpt>
      <trkpt lat="45.94648" lon="4.5251">
        <ele>345</ele>
        <time>2022-03-07T23:37:38Z</time>
      </trkpt>
      <trkpt lat="45.94628" lon="4.5252">
        <ele>343</ele>
        <time>2022-03-07T23:38:06Z</time>
      </trkpt>
      <trkpt lat="45.94619" lon="4.52526">
        <ele>343</ele>
        <time>2022-03-07T23:38:19Z</time>
      </trkpt>
      <trkpt lat="45.946" lon="4.52522">
        <ele>340</ele>
        <time>2022-03-07T23:38:45Z</time>
      </trkpt>
      <trkpt lat="45.94577" lon="4.52547">
        <ele>342</ele>
        <time>2022-03-07T23:39:24Z</time>
      </trkpt>
      <trkpt lat="45.94555" lon="4.52588">
        <ele>344</ele>
        <time>2022-03-07T23:40:12Z</time>
      </trkpt>
      <trkpt lat="45.9455" lon="4.52602">
        <ele>344</ele>
        <time>2022-03-07T23:40:26Z</time>
      </trkpt>
      <trkpt lat="45.9455" lon="4.52614">
        <ele>345</ele>
        <time>2022-03-07T23:40:37Z</time>
      </trkpt>
      <trkpt lat="45.94548" lon="4.52643">
        <ele>348</ele>
        <time>2022-03-07T23:41:04Z</time>
      </trkpt>
      <trkpt lat="45.94544" lon="4.52675">
        <ele>349</ele>
        <time>2022-03-07T23:41:35Z</time>
      </trkpt>
      <trkpt lat="45.94546" lon="4.52681">
        <ele>350</ele>
        <time>2022-03-07T23:41:41Z</time>
      </trkpt>
      <trkpt lat="45.94542" lon="4.52701">
        <ele>349</ele>
        <time>2022-03-07T23:42:00Z</time>
      </trkpt>
      <trkpt lat="45.94541" lon="4.52738">
        <ele>349</ele>
        <time>2022-03-07T23:42:34Z</time>
      </trkpt>
      <trkpt lat="45.94542" lon="4.52757">
        <ele>348</ele>
        <time>2022-03-07T23:42:52Z</time>
      </trkpt>
      <trkpt lat="45.94487" lon="4.52834">
        <ele>354</ele>
        <time>2022-03-07T23:44:35Z</time>
      </trkpt>
      <trkpt lat="45.94473" lon="4.52827">
        <ele>354</ele>
        <time>2022-03-07T23:44:54Z</time>
      </trkpt>
      <trkpt lat="45.94456" lon="4.52825">
        <ele>354</ele>
        <time>2022-03-07T23:45:17Z</time>
      </trkpt>
      <trkpt lat="45.94442" lon="4.52814">
        <ele>353</ele>
        <time>2022-03-07T23:45:38Z</time>
      </trkpt>
      <trkpt lat="45.94424" lon="4.52812">
        <ele>353</ele>
        <time>2022-03-07T23:46:02Z</time>
      </trkpt>
      <trkpt lat="45.94402" lon="4.52812">
        <ele>349</ele>
        <time>2022-03-07T23:46:32Z</time>
      </trkpt>
      <trkpt lat="45.94394" lon="4.52813">
        <ele>348</ele>
        <time>2022-03-07T23:46:43Z</time>
      </trkpt>
      <trkpt lat="45.94379" lon="4.52826">
        <ele>346</ele>
        <time>2022-03-07T23:47:06Z</time>
      </trkpt>
      <trkpt lat="45.94366" lon="4.52848">
        <ele>345</ele>
        <time>2022-03-07T23:47:33Z</time>
      </trkpt>
      <trkpt lat="45.94355" lon="4.5288">
        <ele>342</ele>
        <time>2022-03-07T23:48:06Z</time>
      </trkpt>
      <trkpt lat="45.94349" lon="4.52902">
        <ele>341</ele>
        <time>2022-03-07T23:48:28Z</time>
      </trkpt>
      <trkpt lat="45.94353" lon="4.52977">
        <ele>335</ele>
        <time>2022-03-07T23:49:38Z</time>
      </trkpt>
      <trkpt lat="45.94365" lon="4.52997">
        <ele>335</ele>
        <time>2022-03-07T23:50:02Z</time>
      </trkpt>
      <trkpt lat="45.94378" lon="4.53015">
        <ele>334</ele>
        <time>2022-03-07T23:50:26Z</time>
      </trkpt>
      <trkpt lat="45.9441" lon="4.53026">
        <ele>339</ele>
        <time>2022-03-07T23:51:10Z</time>
      </trkpt>
      <trkpt lat="45.94419" lon="4.52971">
        <ele>351</ele>
        <time>2022-03-07T23:52:02Z</time>
      </trkpt>
      <trkpt lat="45.944" lon="4.52976">
        <ele>347</ele>
        <time>2022-03-07T23:52:28Z</time>
      </trkpt>
      <trkpt lat="45.94381" lon="4.5296">
        <ele>344</ele>
        <time>2022-03-07T23:52:58Z</time>
      </trkpt>
      <trkpt lat="45.94384" lon="4.52934">
        <ele>349</ele>
        <time>2022-03-07T23:53:22Z</time>
      </trkpt>
      <trkpt lat="45.94415" lon="4.52919">
        <ele>359</ele>
        <time>2022-03-07T23:54:06Z</time>
      </trkpt>
      <trkpt lat="45.94442" lon="4.52895">
        <ele>354</ele>
        <time>2022-03-07T23:54:48Z</time>
      </trkpt>
      <trkpt lat="45.94435" lon="4.52917">
        <ele>355</ele>
        <time>2022-03-07T23:55:11Z</time>
      </trkpt>
      <trkpt lat="45.9445" lon="4.52933">
        <ele>349</ele>
        <time>2022-03-07T23:55:35Z</time>
      </trkpt>
      <trkpt lat="45.94437" lon="4.52929">
        <ele>353</ele>
        <time>2022-03-07T23:55:53Z</time>
      </trkpt>
      <trkpt lat="45.94425" lon="4.52952">
        <ele>352</ele>
        <time>2022-03-07T23:56:20Z</time>
      </trkpt>
      <trkpt lat="45.94439" lon="4.52899">
        <ele>355</ele>
        <time>2022-03-07T23:57:12Z</time>
      </trkpt>
      <trkpt lat="45.94471" lon="4.52876">
        <ele>350</ele>
        <time>2022-03-07T23:58:00Z</time>
      </trkpt>
      <trkpt lat="45.94479" lon="4.52852">
        <ele>352</ele>
        <time>2022-03-07T23:58:25Z</time>
      </trkpt>
      <trkpt lat="45.94529" lon="4.52773">
        <ele>348</ele>
        <time>2022-03-08T00:00:04Z</time>
      </trkpt>
      <trkpt lat="45.94555" lon="4.5275">
        <ele>348</ele>
        <time>2022-03-08T00:00:45Z</time>
      </trkpt>
    </trkseg>
  </trk>
</gpx>